Time;durP1;ratioP1;P1;durP2;ratioP2;P2;SDS_P1;SDS_P2;PMS_P1;PMS_P2;Temp;Humidity;BMP_temperature;BMP_pressure;BME280_temperature;BME280_humidity;BME280_pressure;Samples;Min_cycle;Max_cycle;Signal;HPM_P1;HPM_P2
2022/01/08 00:01:42;;;;;;;11.48;2.47;;;2.30;99.90;;;;;;6127898;23;20021;-79
2022/01/08 00:04:08;;;;;;;8.70;2.17;;;2.20;99.90;;;;;;6127763;23;20090;-79
2022/01/08 00:06:35;;;;;;;12.52;2.65;;;2.20;99.90;;;;;;6103333;23;20029;-79
2022/01/08 00:09:01;;;;;;;14.32;2.65;;;2.20;99.90;;;;;;6154419;23;20013;-80
2022/01/08 00:11:27;;;;;;;8.73;2.30;;;2.10;99.90;;;;;;6152783;23;20075;-80
2022/01/08 00:13:54;;;;;;;13.05;2.05;;;2.00;99.90;;;;;;6079768;23;20037;-81
2022/01/08 00:16:39;;;;;;;8.00;2.25;;;2.00;99.90;;;;;;6111828;23;20148;-80
2022/01/08 00:19:05;;;;;;;7.32;2.08;;;2.00;99.90;;;;;;6104048;23;20493;-79
2022/01/08 00:21:33;;;;;;;12.38;2.10;;;2.00;99.90;;;;;;6128289;23;20061;-79
2022/01/08 00:24:04;;;;;;;11.25;2.58;;;2.00;99.90;;;;;;6127481;23;20057;-80
2022/01/08 00:26:31;;;;;;;11.40;2.47;;;1.90;99.90;;;;;;6103786;23;20065;-80
2022/01/08 00:28:56;;;;;;;6.53;2.47;;;1.90;99.90;;;;;;6113081;23;20465;-80
2022/01/08 00:31:22;;;;;;;10.32;3.13;;;1.90;99.90;;;;;;6185122;23;20025;-80
2022/01/08 00:33:48;;;;;;;8.63;2.17;;;1.90;99.90;;;;;;6186578;23;20032;-80
2022/01/08 00:36:14;;;;;;;5.65;1.88;;;1.80;99.90;;;;;;6184141;23;20017;-79
2022/01/08 00:38:40;;;;;;;8.10;2.17;;;1.80;99.90;;;;;;6184582;23;20091;-79
2022/01/08 00:41:09;;;;;;;8.50;2.20;;;1.80;99.90;;;;;;6135820;23;20021;-79
2022/01/08 00:43:35;;;;;;;8.13;2.08;;;1.80;99.90;;;;;;6185773;23;20033;-79
2022/01/08 00:46:01;;;;;;;13.50;2.45;;;1.90;99.90;;;;;;6134156;23;20031;-80
2022/01/08 00:48:27;;;;;;;8.90;2.08;;;1.80;99.90;;;;;;6134623;23;20414;-79
2022/01/08 00:50:53;;;;;;;9.98;2.20;;;1.90;99.90;;;;;;6184077;23;20028;-80
2022/01/08 00:53:20;;;;;;;9.43;2.58;;;1.90;99.90;;;;;;6184097;23;20449;-80
2022/01/08 00:55:46;;;;;;;8.88;2.17;;;1.90;99.90;;;;;;6183755;23;20021;-80
2022/01/08 00:58:12;;;;;;;10.60;2.40;;;1.90;99.90;;;;;;6134310;23;20030;-80
2022/01/08 01:00:41;;;;;;;9.13;2.45;;;1.90;99.90;;;;;;6159428;23;20025;-80
2022/01/08 01:03:08;;;;;;;12.95;2.58;;;1.90;99.90;;;;;;6159129;23;20068;-80
2022/01/08 01:05:34;;;;;;;8.55;1.95;;;1.90;99.90;;;;;;6158719;23;20029;-80
2022/01/08 01:08:00;;;;;;;7.95;2.03;;;1.90;99.90;;;;;;6184172;23;20024;-80
2022/01/08 01:10:26;;;;;;;10.45;3.45;;;1.90;99.90;;;;;;6134696;23;20052;-80
2022/01/08 01:12:52;;;;;;;8.40;2.20;;;1.90;99.90;;;;;;6185813;23;20032;-80
2022/01/08 01:15:22;;;;;;;8.57;2.13;;;1.90;99.90;;;;;;6135858;23;20021;-82
2022/01/08 01:17:49;;;;;;;9.98;2.25;;;1.90;99.90;;;;;;6135614;23;20021;-80
2022/01/08 01:20:20;;;;;;;8.75;2.30;;;1.90;99.90;;;;;;6183742;23;20465;-81
2022/01/08 01:22:55;;;;;;;12.25;2.72;;;1.90;99.90;;;;;;6183647;23;20056;-80
2022/01/08 01:25:33;;;;;;;;;;;1.90;99.90;;;;;;6184080;23;20528;-80
2022/01/08 01:28:12;;;;;;;7.82;2.40;;;1.90;99.90;;;;;;6158487;23;20253;-80
2022/01/08 01:49:18;;;;;;;8.25;2.30;;;2.20;99.90;;;;;;6158637;23;20021;-79
2022/01/08 01:51:47;;;;;;;9.65;3.80;;;2.20;99.90;;;;;;6183162;23;20469;-80
2022/01/08 01:54:13;;;;;;;9.32;3.17;;;2.20;99.90;;;;;;6183196;23;20021;-79
2022/01/08 01:56:39;;;;;;;13.10;2.70;;;2.20;99.90;;;;;;6185204;23;20035;-80
2022/01/08 01:59:05;;;;;;;7.75;3.10;;;2.20;99.90;;;;;;6185123;23;20029;-79
2022/01/08 02:01:31;;;;;;;12.07;3.47;;;2.20;99.90;;;;;;6185767;23;20072;-80
2022/01/08 02:03:57;;;;;;;11.45;2.70;;;2.20;99.90;;;;;;6160414;23;20023;-80
2022/01/08 02:06:23;;;;;;;12.45;2.30;;;2.30;99.90;;;;;;6188100;23;20035;-81
2022/01/08 02:08:50;;;;;;;11.70;2.50;;;2.30;99.90;;;;;;6159063;23;20021;-81
2022/01/08 02:11:20;;;;;;;11.55;2.20;;;2.30;99.90;;;;;;6185766;23;20104;-81
2022/01/08 02:13:46;;;;;;;10.57;2.28;;;2.30;99.90;;;;;;6134421;23;20021;-81
2022/01/08 02:16:18;;;;;;;11.25;2.55;;;2.20;99.90;;;;;;6183671;23;20032;-81
2022/01/08 02:18:46;;;;;;;10.43;2.17;;;2.20;99.90;;;;;;6135347;23;20043;-81
2022/01/08 02:21:13;;;;;;;8.68;3.13;;;2.20;99.90;;;;;;6183772;23;20017;-80
2022/01/08 02:23:41;;;;;;;7.00;2.20;;;2.20;99.90;;;;;;6158882;23;20069;-80
2022/01/08 02:26:11;;;;;;;6.88;1.70;;;2.20;99.90;;;;;;6111083;23;20044;-79
2022/01/08 02:28:37;;;;;;;8.50;1.88;;;2.30;99.90;;;;;;6183179;23;20017;-80
2022/01/08 02:31:04;;;;;;;8.20;2.03;;;2.20;99.90;;;;;;6183775;23;20094;-81
2022/01/08 02:33:34;;;;;;;9.25;2.10;;;2.20;99.90;;;;;;6134458;23;20548;-80
2022/01/08 02:36:06;;;;;;;11.68;2.28;;;2.20;99.90;;;;;;6158796;23;20112;-80
2022/01/08 02:38:43;;;;;;;11.00;1.73;;;2.20;99.90;;;;;;6160171;23;20108;-81
2022/01/08 02:41:12;;;;;;;8.43;2.08;;;2.20;99.90;;;;;;6187367;23;20341;-80
2022/01/08 02:43:44;;;;;;;7.70;1.70;;;2.20;99.90;;;;;;6159444;23;20029;-80
2022/01/08 02:46:10;;;;;;;12.57;1.70;;;2.20;99.90;;;;;;6159156;23;20029;-80
2022/01/08 02:48:36;;;;;;;7.72;1.60;;;2.20;99.90;;;;;;6159783;23;20013;-81
2022/01/08 02:51:02;;;;;;;4.43;1.23;;;2.20;99.90;;;;;;6138248;23;20394;-81
2022/01/08 02:53:28;;;;;;;11.13;2.05;;;2.30;99.90;;;;;;6161438;23;20023;-81
2022/01/08 02:55:54;;;;;;;13.95;3.92;;;2.30;99.90;;;;;;6183063;23;20095;-80
2022/01/08 02:58:21;;;;;;;4.30;0.80;;;2.20;99.90;;;;;;6158321;23;20031;-80
2022/01/08 03:00:47;;;;;;;7.00;1.25;;;2.30;99.90;;;;;;6132947;23;20349;-80
2022/01/08 03:03:14;;;;;;;4.10;1.00;;;2.30;99.90;;;;;;6157828;23;20681;-80
2022/01/08 03:05:41;;;;;;;7.32;1.77;;;2.20;99.90;;;;;;6183292;23;20158;-81
2022/01/08 03:08:06;;;;;;;7.30;0.93;;;2.20;99.90;;;;;;6133838;23;20025;-81
2022/01/08 03:10:32;;;;;;;4.22;1.00;;;2.20;99.90;;;;;;6159071;23;20020;-80
2022/01/08 03:12:58;;;;;;;11.27;1.10;;;2.20;99.90;;;;;;6161042;23;20028;-81
2022/01/08 03:15:25;;;;;;;9.30;1.17;;;2.10;99.90;;;;;;6185753;23;20339;-81
2022/01/08 03:17:50;;;;;;;5.35;1.10;;;2.10;99.90;;;;;;6157563;23;20029;-80
2022/01/08 03:20:17;;;;;;;7.35;1.10;;;2.10;99.90;;;;;;6157879;23;20029;-80
2022/01/08 03:22:45;;;;;;;6.97;1.83;;;2.10;99.90;;;;;;6157828;23;20021;-80
2022/01/08 03:25:12;;;;;;;4.07;1.10;;;2.10;99.90;;;;;;6085365;23;20465;-80
2022/01/08 03:27:38;;;;;;;8.15;1.50;;;2.10;99.90;;;;;;6158070;23;20021;-79
2022/01/08 03:30:30;;;;;;;6.45;1.20;;;2.10;99.90;;;;;;6132893;23;20029;-79
2022/01/08 03:32:56;;;;;;;7.05;1.10;;;2.10;99.90;;;;;;6159635;23;20032;-81
2022/01/08 03:35:22;;;;;;;4.63;1.10;;;2.10;99.90;;;;;;6135610;23;20020;-80
2022/01/08 03:37:48;;;;;;;10.00;1.35;;;2.10;99.90;;;;;;6183124;23;20032;-80
2022/01/08 03:40:14;;;;;;;10.30;2.00;;;2.10;99.90;;;;;;6109010;23;20469;-80
2022/01/08 03:42:40;;;;;;;16.25;2.13;;;2.10;99.90;;;;;;6158180;23;20436;-80
2022/01/08 03:45:06;;;;;;;9.93;1.75;;;2.10;99.90;;;;;;6185684;23;20341;-80
2022/01/08 03:47:54;;;;;;;7.00;1.08;;;2.10;99.90;;;;;;6158353;23;20083;-80
2022/01/08 03:50:20;;;;;;;9.10;0.95;;;2.20;99.90;;;;;;6157777;23;20024;-79
2022/01/08 03:52:50;;;;;;;6.55;1.05;;;2.20;99.90;;;;;;6158508;23;20021;-79
2022/01/08 03:55:16;;;;;;;9.98;1.27;;;2.20;99.90;;;;;;6157725;23;20028;-79
2022/01/08 03:57:42;;;;;;;11.23;1.55;;;2.30;99.90;;;;;;6182631;23;20017;-79
2022/01/08 04:00:14;;;;;;;6.57;1.05;;;2.30;99.90;;;;;;6132797;23;20622;-79
2022/01/08 04:02:46;;;;;;;9.48;1.25;;;2.40;99.90;;;;;;6157844;23;20052;-79
2022/01/08 04:05:13;;;;;;;8.68;1.02;;;2.40;99.90;;;;;;6184070;23;20027;-79
2022/01/08 04:07:39;;;;;;;17.33;1.17;;;2.50;99.90;;;;;;6109423;23;20028;-80
2022/01/08 04:10:07;;;;;;;8.45;1.08;;;2.50;99.90;;;;;;6158396;23;20028;-81
2022/01/08 04:12:56;;;;;;;6.57;0.90;;;2.60;99.90;;;;;;6135995;23;20025;-82
2022/01/08 04:17:49;;;;;;;9.85;1.08;;;3.00;99.90;;;;;;6187154;23;20084;-80
2022/01/08 04:20:30;;;;;;;8.55;1.10;;;3.10;99.90;;;;;;6073624;23;20022;-80
2022/01/08 04:22:56;;;;;;;9.90;1.95;;;3.10;99.90;;;;;;6070767;23;20054;-80
2022/01/08 04:25:23;;;;;;;14.38;1.50;;;3.10;99.90;;;;;;6094489;23;20500;-81
2022/01/08 04:27:50;;;;;;;12.55;1.50;;;3.10;99.90;;;;;;6094925;23;20399;-80
2022/01/08 04:30:16;;;;;;;8.40;1.50;;;3.10;99.90;;;;;;6070766;23;20026;-80
2022/01/08 04:32:42;;;;;;;10.60;1.60;;;3.00;99.90;;;;;;6069914;23;20041;-80
2022/01/08 04:35:09;;;;;;;8.25;1.10;;;3.00;99.90;;;;;;6041737;23;20027;-80
2022/01/08 04:37:35;;;;;;;11.02;1.00;;;2.90;99.90;;;;;;6068817;23;20633;-80
2022/01/08 04:40:00;;;;;;;6.93;1.10;;;2.90;99.90;;;;;;6094959;23;20064;-81
2022/01/08 04:42:26;;;;;;;7.47;1.17;;;2.80;99.90;;;;;;6067061;23;20490;-80
2022/01/08 04:44:54;;;;;;;6.20;1.00;;;2.80;99.90;;;;;;6070541;23;20074;-81
2022/01/08 04:47:20;;;;;;;9.32;1.27;;;2.80;99.90;;;;;;6065745;23;20521;-80
2022/01/08 04:49:49;;;;;;;8.23;1.42;;;2.70;99.90;;;;;;6067768;23;20063;-79
2022/01/08 04:52:21;;;;;;;8.77;1.45;;;2.60;99.90;;;;;;6113111;23;20022;-80
2022/01/08 04:54:47;;;;;;;9.98;1.67;;;2.50;99.90;;;;;;6118079;23;20025;-80
2022/01/08 04:57:12;;;;;;;7.25;1.20;;;2.50;99.90;;;;;;6125322;23;20029;-79
2022/01/08 04:59:38;;;;;;;8.40;1.30;;;2.50;99.90;;;;;;6104359;23;20044;-80
2022/01/08 05:02:06;;;;;;;10.73;2.03;;;2.40;99.90;;;;;;6157411;23;20036;-79
2022/01/08 05:04:32;;;;;;;9.05;1.73;;;2.40;99.90;;;;;;6156445;23;20327;-80
2022/01/08 05:06:57;;;;;;;4.05;1.05;;;2.30;99.90;;;;;;6157836;23;20084;-80
2022/01/08 05:09:23;;;;;;;8.93;1.65;;;2.30;99.90;;;;;;6156579;23;20029;-80
2022/01/08 05:11:49;;;;;;;9.20;1.30;;;2.20;99.90;;;;;;6130713;23;20088;-80
2022/01/08 05:14:15;;;;;;;9.35;1.52;;;2.20;99.90;;;;;;6130318;23;20035;-81
2022/01/08 05:16:43;;;;;;;10.00;2.53;;;2.10;99.90;;;;;;6128696;23;20026;-80
2022/01/08 05:19:20;;;;;;;6.63;1.38;;;2.10;99.90;;;;;;6155318;23;20032;-79
2022/01/08 05:21:48;;;;;;;9.48;1.42;;;2.00;99.90;;;;;;6106457;23;20410;-78
2022/01/08 05:24:13;;;;;;;13.85;1.80;;;1.90;99.90;;;;;;6158252;23;20057;-79
2022/01/08 05:26:40;;;;;;;9.40;1.80;;;1.90;99.90;;;;;;6104968;23;20049;-79
2022/01/08 05:29:06;;;;;;;7.68;1.38;;;1.90;99.90;;;;;;6104773;23;20079;-80
2022/01/08 05:31:35;;;;;;;6.55;1.45;;;1.80;99.90;;;;;;6183533;23;20036;-80
2022/01/08 05:34:01;;;;;;;10.98;1.42;;;1.80;99.90;;;;;;6159744;23;20025;-80
2022/01/08 05:36:26;;;;;;;10.73;2.95;;;1.80;99.90;;;;;;6186760;23;20096;-80
2022/01/08 05:38:52;;;;;;;11.27;2.47;;;1.80;99.90;;;;;;6160439;23;20052;-81
2022/01/08 05:41:18;;;;;;;4.55;1.30;;;1.80;99.90;;;;;;6135528;23;20052;-81
2022/01/08 05:43:46;;;;;;;8.48;1.60;;;1.80;99.90;;;;;;6158948;23;20021;-80
2022/01/08 05:46:11;;;;;;;6.35;1.23;;;1.80;99.90;;;;;;6159663;23;20051;-81
2022/01/08 05:48:39;;;;;;;9.30;1.63;;;1.90;99.90;;;;;;6159622;23;20025;-79
2022/01/08 05:51:05;;;;;;;9.20;1.23;;;1.90;99.90;;;;;;6185459;23;20052;-79
2022/01/08 05:53:31;;;;;;;11.70;1.90;;;1.90;99.90;;;;;;6187396;23;20029;-79
2022/01/08 05:55:57;;;;;;;11.10;1.52;;;1.90;99.90;;;;;;6186280;23;20103;-80
2022/01/08 05:58:23;;;;;;;7.32;1.50;;;2.00;99.90;;;;;;6135282;23;20453;-77
2022/01/08 06:00:50;;;;;;;9.32;1.40;;;2.00;99.90;;;;;;6158442;23;20461;-81
2022/01/08 06:03:17;;;;;;;8.38;1.40;;;2.00;99.90;;;;;;6134654;23;20071;-81
2022/01/08 06:05:43;;;;;;;8.60;1.88;;;2.10;99.90;;;;;;6185767;23;20028;-79
2022/01/08 06:08:09;;;;;;;9.68;1.50;;;2.10;99.90;;;;;;6158781;23;20017;-80
2022/01/08 06:10:34;;;;;;;9.80;1.30;;;2.00;99.90;;;;;;6185665;23;20021;-82
2022/01/08 06:13:00;;;;;;;8.82;1.35;;;2.00;99.90;;;;;;6134371;23;20055;-79
2022/01/08 06:15:45;;;;;;;6.72;1.23;;;2.00;99.90;;;;;;6163066;23;20510;-80
2022/01/08 06:18:16;;;;;;;7.78;1.60;;;2.00;99.90;;;;;;6158403;23;20033;-79
2022/01/08 06:20:42;;;;;;;8.88;1.65;;;2.00;99.90;;;;;;6134520;23;20462;-80
2022/01/08 06:23:08;;;;;;;10.35;1.80;;;1.90;99.90;;;;;;6134610;23;20021;-79
2022/01/08 06:25:35;;;;;;;10.60;1.13;;;2.00;99.90;;;;;;6184364;23;20033;-80
2022/01/08 06:28:02;;;;;;;6.22;1.00;;;1.90;99.90;;;;;;6160048;23;20112;-81
2022/01/08 06:30:27;;;;;;;12.98;1.30;;;1.90;99.90;;;;;;6159992;23;20059;-81
2022/01/08 06:32:55;;;;;;;6.03;1.52;;;1.90;99.90;;;;;;6159143;23;20020;-80
2022/01/08 06:35:21;;;;;;;10.75;1.58;;;1.90;99.90;;;;;;6158701;23;20516;-80
2022/01/08 06:37:46;;;;;;;12.13;2.63;;;1.80;99.90;;;;;;6158002;23;20021;-81
2022/01/08 06:40:12;;;;;;;10.40;2.47;;;1.80;99.90;;;;;;6185210;23;20032;-80
2022/01/08 06:42:38;;;;;;;8.88;1.88;;;1.80;99.90;;;;;;6184350;23;20073;-80
2022/01/08 06:45:04;;;;;;;9.27;2.35;;;1.70;99.90;;;;;;6185937;23;20028;-80
2022/01/08 06:47:30;;;;;;;14.85;2.20;;;1.70;99.90;;;;;;6158480;23;20487;-80
2022/01/08 06:49:56;;;;;;;5.95;1.70;;;1.70;99.90;;;;;;6157690;23;20053;-80
2022/01/08 06:52:21;;;;;;;13.32;3.30;;;1.60;99.90;;;;;;6158491;23;20327;-80
2022/01/08 06:54:47;;;;;;;8.27;2.10;;;1.70;99.90;;;;;;6158153;23;20027;-80
2022/01/08 06:57:13;;;;;;;12.68;2.47;;;1.70;99.90;;;;;;6159377;23;20060;-79
2022/01/08 06:59:39;;;;;;;11.07;2.63;;;1.70;99.90;;;;;;6158431;23;20353;-80
2022/01/08 07:02:04;;;;;;;10.88;2.67;;;1.70;99.90;;;;;;6158186;23;20088;-79
2022/01/08 07:04:30;;;;;;;9.13;2.20;;;1.70;99.90;;;;;;6185875;23;20449;-80
2022/01/08 07:06:56;;;;;;;15.50;2.20;;;1.60;99.90;;;;;;6156310;23;20314;-80
2022/01/08 07:09:24;;;;;;;11.10;1.98;;;1.50;99.90;;;;;;6183991;23;20025;-80
2022/01/08 07:11:52;;;;;;;12.57;2.42;;;1.50;99.90;;;;;;6185354;23;20025;-79
2022/01/08 07:14:19;;;;;;;13.23;2.35;;;1.50;99.90;;;;;;6158986;23;20457;-82
2022/01/08 07:16:54;;;;;;;10.60;3.13;;;1.50;99.90;;;;;;6135661;23;20036;-80
2022/01/08 07:19:24;;;;;;;7.03;1.85;;;1.50;99.90;;;;;;6134537;23;20406;-80
2022/01/08 07:22:00;;;;;;;14.93;3.30;;;1.50;99.90;;;;;;6185352;23;20021;-80
2022/01/08 07:24:45;;;;;;;11.70;2.63;;;1.50;99.90;;;;;;6184552;23;20079;-79
2022/01/08 07:27:17;;;;;;;9.57;2.30;;;1.50;99.90;;;;;;6158378;23;20396;-79
2022/01/08 07:29:42;;;;;;;7.60;2.13;;;1.50;99.90;;;;;;6157913;23;20021;-80
2022/01/08 07:32:08;;;;;;;10.30;2.13;;;1.50;99.90;;;;;;6185167;23;20119;-80
2022/01/08 07:34:34;;;;;;;12.55;3.17;;;1.40;99.90;;;;;;6183666;23;20096;-80
2022/01/08 07:37:00;;;;;;;10.40;3.67;;;1.40;99.90;;;;;;6184728;23;20029;-79
2022/01/08 07:39:25;;;;;;;7.53;2.47;;;1.40;99.90;;;;;;6158480;23;20108;-79
2022/01/08 07:41:51;;;;;;;9.23;2.38;;;1.40;99.90;;;;;;6158761;23;20029;-79
2022/01/08 07:44:19;;;;;;;10.38;1.77;;;1.40;99.90;;;;;;6185325;23;20075;-79
2022/01/08 07:46:45;;;;;;;9.25;2.45;;;1.40;99.90;;;;;;6158183;23;20029;-80
2022/01/08 07:49:11;;;;;;;8.55;2.10;;;1.40;99.90;;;;;;6158970;23;20045;-80
2022/01/08 07:51:37;;;;;;;10.38;2.38;;;1.40;99.90;;;;;;6185726;23;20079;-81
2022/01/08 07:54:03;;;;;;;9.45;2.25;;;1.40;99.90;;;;;;6182792;23;20100;-80
2022/01/08 07:56:34;;;;;;;12.57;2.38;;;1.40;99.90;;;;;;6134397;23;20027;-81
2022/01/08 07:59:00;;;;;;;13.32;2.17;;;1.40;99.90;;;;;;6159701;23;20029;-80
2022/01/08 08:01:26;;;;;;;14.75;2.33;;;1.40;99.90;;;;;;6135520;23;20057;-80
2022/01/08 08:03:52;;;;;;;7.63;1.95;;;1.40;99.90;;;;;;6158335;23;20044;-80
2022/01/08 08:06:17;;;;;;;14.75;2.67;;;1.40;99.90;;;;;;6158545;23;20477;-80
2022/01/08 08:08:44;;;;;;;9.60;2.50;;;1.40;99.90;;;;;;6158208;23;20025;-80
2022/01/08 08:11:10;;;;;;;13.35;2.85;;;1.50;99.90;;;;;;6133507;23;20075;-80
2022/01/08 08:13:37;;;;;;;12.63;2.63;;;1.50;99.90;;;;;;6157993;23;20027;-79
2022/01/08 08:16:03;;;;;;;11.48;2.22;;;1.50;99.90;;;;;;6158047;23;20029;-81
2022/01/08 08:18:34;;;;;;;10.60;2.20;;;1.60;99.90;;;;;;6154227;23;20032;-79
2022/01/08 08:21:04;;;;;;;8.95;2.00;;;1.60;99.90;;;;;;6183292;23;20450;-80
2022/01/08 08:23:30;;;;;;;10.45;2.20;;;1.70;99.90;;;;;;6158440;23;20426;-80
2022/01/08 08:25:56;;;;;;;11.02;3.00;;;1.70;99.90;;;;;;6158467;23;20021;-79
2022/01/08 08:28:22;;;;;;;10.05;3.80;;;1.80;99.90;;;;;;6159445;23;20029;-80
2022/01/08 08:30:47;;;;;;;10.55;2.88;;;1.80;99.90;;;;;;6135877;23;20060;-81
2022/01/08 08:33:15;;;;;;;18.67;3.00;;;1.80;99.90;;;;;;6184863;23;20033;-79
2022/01/08 08:35:40;;;;;;;9.40;2.15;;;1.90;99.90;;;;;;6160334;23;20061;-79
2022/01/08 08:38:14;;;;;;;14.05;2.53;;;1.90;99.90;;;;;;6158787;23;20060;-81
2022/01/08 08:40:45;;;;;;;18.17;3.30;;;1.90;99.90;;;;;;6157936;23;20494;-81
2022/01/08 08:43:11;;;;;;;10.85;2.72;;;2.00;99.90;;;;;;6133442;23;20354;-80
2022/01/08 08:45:39;;;;;;;13.20;2.63;;;2.00;99.90;;;;;;6157972;23;20021;-80
2022/01/08 08:48:05;;;;;;;12.77;2.70;;;2.00;99.90;;;;;;6156270;23;20025;-79
2022/01/08 08:50:31;;;;;;;12.68;3.03;;;2.10;99.90;;;;;;6184447;23;20021;-79
2022/01/08 08:52:56;;;;;;;12.63;3.10;;;2.10;99.90;;;;;;6182759;23;20025;-80
2022/01/08 08:55:23;;;;;;;13.60;3.08;;;2.10;99.90;;;;;;6134147;23;20021;-81
2022/01/08 08:57:49;;;;;;;14.48;4.93;;;2.10;99.90;;;;;;6183309;23;20088;-81
2022/01/08 09:00:15;;;;;;;8.27;2.80;;;2.20;99.90;;;;;;6158455;23;20111;-81
2022/01/08 09:02:42;;;;;;;8.52;2.90;;;2.30;99.90;;;;;;6112494;23;20391;-80
2022/01/08 09:05:08;;;;;;;9.18;2.78;;;2.40;99.90;;;;;;6136721;23;20028;-81
2022/01/08 09:07:35;;;;;;;13.27;2.95;;;2.40;99.90;;;;;;6160330;23;20080;-81
2022/01/08 09:10:05;;;;;;;12.13;3.40;;;2.40;99.90;;;;;;6161243;23;20120;-81
2022/01/08 09:12:36;;;;;;;9.43;3.70;;;2.50;99.90;;;;;;6160500;23;20029;-82
2022/01/08 09:15:07;;;;;;;8.77;2.50;;;2.50;99.90;;;;;;6111467;23;20029;-82
2022/01/08 09:17:34;;;;;;;10.45;2.70;;;2.60;99.90;;;;;;6136914;23;20109;-82
2022/01/08 09:20:01;;;;;;;14.20;3.60;;;2.60;99.90;;;;;;6187493;23;20032;-82
2022/01/08 09:22:26;;;;;;;15.77;3.63;;;2.60;99.90;;;;;;6159832;23;20056;-82
2022/01/08 09:24:54;;;;;;;9.82;2.70;;;2.60;99.90;;;;;;6134515;23;20409;-82
2022/01/08 09:27:21;;;;;;;8.02;3.35;;;2.60;99.90;;;;;;6159474;23;20043;-82
2022/01/08 09:29:47;;;;;;;16.30;4.20;;;2.60;99.90;;;;;;6134596;23;20029;-82
2022/01/08 09:32:13;;;;;;;14.10;3.17;;;2.60;99.90;;;;;;6185854;23;20025;-81
2022/01/08 09:34:39;;;;;;;10.90;4.15;;;2.60;99.90;;;;;;6134985;23;20103;-81
2022/01/08 09:37:05;;;;;;;15.52;3.70;;;2.70;99.90;;;;;;6184428;23;20021;-81
2022/01/08 09:39:31;;;;;;;10.57;3.58;;;2.80;99.90;;;;;;6161320;23;20028;-82
2022/01/08 09:41:59;;;;;;;10.68;3.20;;;2.80;99.90;;;;;;6156694;23;20021;-82
2022/01/08 09:44:24;;;;;;;13.32;3.95;;;2.80;99.90;;;;;;6184222;23;20028;-81
2022/01/08 09:46:50;;;;;;;11.95;5.20;;;2.90;99.90;;;;;;6159350;23;20025;-83
2022/01/08 09:49:16;;;;;;;16.42;4.15;;;3.00;99.90;;;;;;6110309;23;20060;-81
2022/01/08 09:51:42;;;;;;;10.90;3.15;;;3.20;99.90;;;;;;6110675;23;20393;-82
2022/01/08 09:54:08;;;;;;;12.20;3.63;;;3.20;99.90;;;;;;6159517;23;20028;-81
2022/01/08 09:56:34;;;;;;;19.73;4.80;;;3.30;99.90;;;;;;6134034;23;20360;-81
2022/01/08 09:59:03;;;;;;;16.17;3.20;;;3.40;99.90;;;;;;6184104;23;20096;-82
2022/01/08 10:01:30;;;;;;;13.80;3.80;;;3.50;99.90;;;;;;6184038;23;20402;-81
2022/01/08 10:03:58;;;;;;;10.07;3.00;;;3.50;99.90;;;;;;6159213;23;20048;-81
2022/01/08 10:06:32;;;;;;;7.75;2.95;;;3.50;99.90;;;;;;6135452;23;20021;-81
2022/01/08 10:09:05;;;;;;;8.25;2.88;;;3.50;99.90;;;;;;6156440;23;20075;-81
2022/01/08 10:11:48;;;;;;;10.70;2.97;;;3.50;99.90;;;;;;6137034;23;20536;-81
2022/01/08 10:14:27;;;;;;;7.50;2.65;;;3.60;99.90;;;;;;6185700;23;20086;-82
2022/01/08 10:19:37;;;;;;;16.43;2.80;;;3.70;99.90;;;;;;6142366;23;20081;-82
2022/01/08 10:22:14;;;;;;;9.75;3.05;;;3.70;99.90;;;;;;6188564;23;20029;-82
2022/01/08 10:24:40;;;;;;;11.02;2.95;;;3.70;99.90;;;;;;6188202;23;20095;-82
2022/01/08 10:27:07;;;;;;;16.45;3.03;;;3.80;99.90;;;;;;6183675;23;20465;-82
2022/01/08 10:29:34;;;;;;;11.90;3.35;;;3.80;99.90;;;;;;6159595;23;20021;-81
2022/01/08 10:32:12;;;;;;;14.32;3.30;;;3.80;99.90;;;;;;6140718;23;20021;-81
2022/01/08 10:34:38;;;;;;;9.23;3.03;;;3.80;99.90;;;;;;6133862;23;20032;-83
2022/01/08 10:37:06;;;;;;;12.68;3.50;;;3.80;99.90;;;;;;6184182;23;20059;-82
2022/01/08 10:39:37;;;;;;;11.18;2.85;;;3.80;99.90;;;;;;6183379;23;20028;-81
2022/01/08 10:42:12;;;;;;;13.25;3.65;;;3.80;99.90;;;;;;6135507;23;20032;-82
2022/01/08 10:44:38;;;;;;;10.45;3.03;;;3.80;99.90;;;;;;6159498;23;20029;-82
2022/01/08 10:47:13;;;;;;;11.48;3.70;;;3.80;99.90;;;;;;6159425;23;20457;-83
2022/01/08 10:49:48;;;;;;;11.48;3.53;;;3.80;99.90;;;;;;6159706;23;20021;-81
2022/01/08 10:52:21;;;;;;;15.13;4.05;;;3.80;99.90;;;;;;6134969;23;20493;-82
2022/01/08 10:55:00;;;;;;;12.88;3.55;;;3.80;99.90;;;;;;6182693;23;20074;-81
2022/01/08 10:57:37;;;;;;;12.50;3.90;;;3.80;99.90;;;;;;6186255;23;20051;-82
2022/01/08 11:00:05;;;;;;;17.70;4.05;;;3.80;99.90;;;;;;6158319;23;20099;-82
2022/01/08 11:02:32;;;;;;;14.40;3.75;;;3.80;99.90;;;;;;6135486;23;20036;-82
2022/01/08 11:05:04;;;;;;;10.40;3.55;;;3.80;99.90;;;;;;6185792;23;20021;-82
2022/01/08 11:07:32;;;;;;;13.15;5.05;;;3.90;99.90;;;;;;6134705;23;20024;-83
2022/01/08 11:10:07;;;;;;;9.73;3.28;;;3.90;99.90;;;;;;6160156;23;20063;-82
2022/01/08 11:12:40;;;;;;;13.38;3.58;;;3.90;99.90;;;;;;6187868;23;20325;-81
2022/01/08 11:17:45;;;;;;;14.30;3.45;;;3.90;99.90;;;;;;6160605;23;20029;-82
2022/01/08 11:20:17;;;;;;;12.13;3.78;;;3.90;99.90;;;;;;6158740;23;20036;-82
2022/01/08 11:22:52;;;;;;;10.85;3.40;;;3.90;99.90;;;;;;6184298;23;20045;-81
2022/01/08 11:25:23;;;;;;;13.50;3.72;;;4.00;99.90;;;;;;6135884;23;20071;-82
2022/01/08 11:28:03;;;;;;;13.80;3.75;;;4.00;99.90;;;;;;6185804;23;20110;-81
2022/01/08 11:30:32;;;;;;;12.63;4.20;;;4.00;99.90;;;;;;6133100;23;20025;-82
2022/01/08 11:33:03;;;;;;;14.55;4.20;;;4.10;99.90;;;;;;6159013;23;20021;-81
2022/01/08 11:35:31;;;;;;;8.27;3.60;;;4.10;99.90;;;;;;6134146;23;20025;-83
2022/01/08 11:38:02;;;;;;;10.57;4.07;;;4.10;99.90;;;;;;6184187;23;20032;-82
2022/01/08 11:40:28;;;;;;;15.93;3.75;;;4.10;99.90;;;;;;6133313;23;20338;-82
2022/01/08 11:42:57;;;;;;;34.83;5.93;;;4.10;99.90;;;;;;6158065;23;20021;-81
2022/01/08 11:45:33;;;;;;;9.18;4.15;;;4.10;99.90;;;;;;6183358;23;20370;-81
2022/01/08 11:48:02;;;;;;;10.98;4.10;;;4.20;99.90;;;;;;6135363;23;20087;-82
2022/01/08 11:50:31;;;;;;;13.68;5.25;;;4.10;99.90;;;;;;6184713;23;20084;-81
2022/01/08 11:53:25;;;;;;;11.65;4.43;;;4.10;99.90;;;;;;6161422;23;20017;-83
2022/01/08 11:55:54;;;;;;;16.25;6.43;;;4.10;99.90;;;;;;6159025;23;20021;-83
2022/01/08 11:58:26;;;;;;;13.20;5.18;;;4.10;99.90;;;;;;6190711;23;20541;-84
2022/01/08 12:00:55;;;;;;;11.30;4.28;;;4.10;99.90;;;;;;6133750;23;20013;-83
2022/01/08 12:03:31;;;;;;;12.18;4.25;;;4.10;99.90;;;;;;6158309;23;20025;-83
2022/01/08 12:06:16;;;;;;;12.57;4.28;;;4.10;99.90;;;;;;6158163;23;20080;-81
2022/01/08 12:08:48;;;;;;;12.55;4.22;;;4.10;99.90;;;;;;6132837;23;20151;-82
2022/01/08 12:11:14;;;;;;;11.27;5.15;;;4.10;99.90;;;;;;6157039;23;20037;-83
2022/01/08 12:13:47;;;;;;;16.15;4.53;;;4.10;99.90;;;;;;6133719;23;20465;-84
2022/01/08 12:16:33;;;;;;;14.65;5.72;;;4.10;99.90;;;;;;6158518;23;20108;-82
2022/01/08 12:18:59;;;;;;;;;;;4.10;99.90;;;;;;6158491;23;20025;-82
2022/01/08 12:21:38;;;;;;;16.00;6.80;;;4.10;99.90;;;;;;6184735;23;19919;-81
2022/01/08 12:24:37;;;;;;;20.27;5.38;;;4.10;99.90;;;;;;6182534;23;20428;-83
2022/01/08 12:27:20;;;;;;;13.68;4.38;;;4.20;99.90;;;;;;6040688;23;20133;-83
2022/01/08 12:29:47;;;;;;;12.40;4.78;;;4.20;99.90;;;;;;6043719;23;20459;-84
2022/01/08 12:32:35;;;;;;;14.63;4.90;;;4.20;99.90;;;;;;6085862;23;20354;-83
2022/01/08 12:35:02;;;;;;;16.70;5.30;;;4.20;99.90;;;;;;6082231;23;20022;-82
2022/01/08 12:37:39;;;;;;;10.02;5.28;;;4.20;99.90;;;;;;6095566;23;20404;-81
2022/01/08 12:40:09;;;;;;;13.48;5.70;;;4.20;99.90;;;;;;6096912;23;20062;-81
2022/01/08 12:42:39;;;;;;;16.10;5.45;;;4.20;99.90;;;;;;6078246;23;20035;-84
2022/01/08 12:45:20;;;;;;;12.40;6.50;;;4.20;99.90;;;;;;6078023;23;20062;-82
2022/01/08 12:47:52;;;;;;;10.65;6.18;;;4.20;99.90;;;;;;6071713;23;20022;-82
2022/01/08 12:50:20;;;;;;;13.43;5.75;;;4.20;99.90;;;;;;6095296;23;20027;-82
2022/01/08 12:53:05;;;;;;;21.83;6.90;;;4.20;99.90;;;;;;6071806;23;20026;-80
2022/01/08 12:55:37;;;;;;;17.02;6.88;;;4.20;99.90;;;;;;6074151;23;20033;-84
2022/01/08 12:58:16;;;;;;;9.95;5.45;;;4.20;99.90;;;;;;6098218;23;20074;-83
2022/01/08 13:01:08;;;;;;;18.02;6.90;;;4.20;99.90;;;;;;6070300;23;20069;-83
2022/01/08 13:03:37;;;;;;;18.27;6.50;;;4.20;99.90;;;;;;6152924;23;20024;-83
2022/01/08 13:06:11;;;;;;;13.23;6.53;;;4.20;99.90;;;;;;6184246;23;20357;-83
2022/01/08 13:08:38;;;;;;;13.93;6.97;;;4.10;99.90;;;;;;6183902;23;20028;-82
2022/01/08 13:11:07;;;;;;;14.98;7.57;;;4.10;99.90;;;;;;6184568;23;20032;-83
2022/01/08 13:13:40;;;;;;;14.88;7.30;;;4.10;99.90;;;;;;6186022;23;20028;-82
2022/01/08 13:16:13;;;;;;;12.73;7.30;;;4.00;99.90;;;;;;6185772;23;20464;-83
2022/01/08 13:18:40;;;;;;;12.90;7.72;;;4.00;99.90;;;;;;6183446;23;20024;-82
2022/01/08 13:21:08;;;;;;;12.45;7.45;;;4.00;99.90;;;;;;6134473;23;20028;-83
2022/01/08 13:23:48;;;;;;;18.23;9.15;;;4.00;99.90;;;;;;6159314;23;20334;-81
2022/01/08 13:26:15;;;;;;;15.48;9.40;;;4.00;99.90;;;;;;6186927;23;20029;-81
2022/01/08 13:28:48;;;;;;;14.98;8.23;;;4.00;99.90;;;;;;6188641;23;20062;-82